This is the latest recevied weather packets stored in our database for station/object KC0UFP. If no packets are shown the sender has not sent any weather packets the latest 10 day(s).
| Time | Temp. | Humidity | Pressure | Rain* | Wind** | Luminosity | Snow |
|---|---|---|---|---|---|---|---|
| 1777691543 | 13.89° C | 52% | 1017.7 hPa | 0 mm | - | 0 W/m² | - |
| 1777691242 | 13.89° C | 52% | 1017.4 hPa | 0 mm | - | 0 W/m² | - |
| 1777690940 | 13.89° C | 53% | 1017.8 hPa | 0 mm | - | 0 W/m² | - |
| 1777690636 | 14.44° C | 53% | 1017.8 hPa | 0 mm | - | 0 W/m² | - |
| 1777690334 | 14.44° C | 53% | 1017.5 hPa | 0 mm | - | 0 W/m² | - |
| 1777690032 | 13.89° C | 53% | 1017.6 hPa | 0 mm | - | 0 W/m² | - |
| 1777689730 | 13.89° C | 54% | 1017.6 hPa | 0 mm | - | 0 W/m² | - |
| 1777689428 | 14.44° C | 53% | 1017.7 hPa | 0 mm | - | 0 W/m² | - |
| 1777689124 | 14.44° C | 50% | 1017.5 hPa | 0 mm | - | 0 W/m² | - |
| 1777688822 | 14.44° C | 50% | 1017.6 hPa | 0 mm | - | 0 W/m² | - |
| 1777672459 | 18.33° C | 32% | 1014.5 hPa | 0 mm | - | 539 W/m² | - |
| 1777670635 | 17.78° C | 31% | 1014.9 hPa | 0 mm | - | 671 W/m² | - |
| 1777670332 | 18.33° C | 31% | 1015.1 hPa | 0 mm | - | 711 W/m² | - |
| 1777670029 | 17.78° C | 33% | 1015.2 hPa | 0 mm | - | 632 W/m² | - |
| 1777669726 | 18.33° C | 34% | 1015 hPa | 0 mm | - | 739 W/m² | - |
| 1777667906 | 18.33° C | 31% | 1015.6 hPa | 0 mm | - | 866 W/m² | - |
| 1777667604 | 17.78° C | 33% | 1015.6 hPa | 0 mm | - | 872 W/m² | - |
| 1777666088 | 18.33° C | 31% | 1016.4 hPa | 0 mm | - | 650 W/m² | - |
| 1777664570 | 17.22° C | 33% | 1016.9 hPa | 0 mm | - | 426 W/m² | - |
| 1777664266 | 17.78° C | 33% | 1016.8 hPa | 0 mm | - | 763 W/m² | - |
| 1777663359 | 17.78° C | 32% | 1017.2 hPa | 0 mm | - | 612 W/m² | - |
| 1777662450 | 16.67° C | 34% | 1017.3 hPa | 0 mm | - | 1082 W/m² | - |
| 1777661237 | 17.22° C | 36% | 1017.9 hPa | 0 mm | - | 889 W/m² | - |
| 1777660625 | 17.22° C | 38% | 1018 hPa | 0 mm | - | 804 W/m² | - |
| 1777660322 | 16.67° C | 39% | 1017.9 hPa | 0 mm | - | 638 W/m² | - |
* Rain latest hour (hover to see other rain measurements)
** Current wind speed in m/s (hover to see current wind gust speed)